Time;durP1;ratioP1;P1;durP2;ratioP2;P2;SDS_P1;SDS_P2;PMS_P1;PMS_P2;Temp;Humidity;BMP_temperature;BMP_pressure;BME280_temperature;BME280_humidity;BME280_pressure;Samples;Min_cycle;Max_cycle;Signal;HPM_P1;HPM_P2
2022/03/06 00:01:22;;;;;;;10.57;5.83;;;-1.20;97.30;;;;;;5060890;28;20702;-82
2022/03/06 00:03:47;;;;;;;8.00;4.80;;;-1.30;97.30;;;;;;5073694;28;20179;-82
2022/03/06 00:06:14;;;;;;;12.03;5.53;;;-1.30;97.30;;;;;;5064138;28;20227;-81
2022/03/06 00:08:41;;;;;;;10.50;6.03;;;-1.30;97.30;;;;;;5037150;28;20188;-81
2022/03/06 00:11:06;;;;;;;14.23;5.87;;;-1.30;97.30;;;;;;5037363;28;20544;-80
2022/03/06 00:13:33;;;;;;;10.73;5.37;;;-1.40;97.30;;;;;;5037154;28;20501;-80
2022/03/06 00:15:59;;;;;;;8.77;5.40;;;-1.40;97.30;;;;;;5036536;28;20231;-81
2022/03/06 00:18:25;;;;;;;9.50;5.13;;;-1.40;97.30;;;;;;5036927;28;20424;-80
2022/03/06 00:20:51;;;;;;;8.70;5.20;;;-1.40;97.30;;;;;;5037978;28;20180;-81
2022/03/06 00:23:17;;;;;;;12.60;6.17;;;-1.40;97.30;;;;;;5036994;28;20180;-80
2022/03/06 00:25:42;;;;;;;10.17;4.67;;;-1.40;97.30;;;;;;5040154;28;20198;-82
2022/03/06 00:28:08;;;;;;;11.97;5.70;;;-1.40;97.30;;;;;;5058754;28;20422;-81
2022/03/06 00:30:34;;;;;;;7.30;5.47;;;-1.30;97.30;;;;;;5054414;28;20198;-81
2022/03/06 00:32:59;;;;;;;10.10;6.50;;;-1.30;97.30;;;;;;5054566;28;20210;-81
2022/03/06 00:35:28;;;;;;;10.67;5.20;;;-1.30;97.30;;;;;;5037957;28;20470;-81
2022/03/06 00:37:54;;;;;;;9.83;5.80;;;-1.30;97.30;;;;;;5037382;28;20186;-81
2022/03/06 00:40:20;;;;;;;11.40;5.47;;;-1.30;97.30;;;;;;5059264;28;20494;-81
2022/03/06 00:42:45;;;;;;;11.77;6.07;;;-1.30;97.30;;;;;;5054763;28;20933;-81
2022/03/06 00:45:11;;;;;;;15.73;6.87;;;-1.30;97.30;;;;;;5046697;28;20310;-81
2022/03/06 00:47:36;;;;;;;10.63;6.00;;;-1.30;97.30;;;;;;5043535;28;20183;-81
2022/03/06 00:50:02;;;;;;;8.83;4.93;;;-1.30;97.30;;;;;;5046782;28;20188;-81
2022/03/06 00:52:28;;;;;;;10.77;5.23;;;-1.20;97.30;;;;;;5046278;28;20176;-80
2022/03/06 00:54:53;;;;;;;16.77;5.57;;;-1.20;97.30;;;;;;5042463;28;20974;-82
2022/03/06 00:57:19;;;;;;;10.00;5.40;;;-1.20;97.30;;;;;;5043554;28;20208;-81
2022/03/06 00:59:44;;;;;;;9.10;5.90;;;-1.20;97.30;;;;;;5046183;28;20178;-81
2022/03/06 01:02:10;;;;;;;7.07;4.97;;;-1.20;97.30;;;;;;5042421;28;20176;-81
2022/03/06 01:04:37;;;;;;;9.03;5.70;;;-1.20;97.30;;;;;;5045440;28;20611;-82
2022/03/06 01:07:03;;;;;;;8.60;5.60;;;-1.10;97.30;;;;;;5047191;28;20206;-81
2022/03/06 01:09:29;;;;;;;9.90;5.37;;;-1.10;97.30;;;;;;5040478;28;20414;-81
2022/03/06 01:11:55;;;;;;;12.87;4.73;;;-1.10;97.30;;;;;;5046757;28;20457;-81
2022/03/06 01:14:20;;;;;;;9.30;6.00;;;-1.00;97.30;;;;;;5046615;28;20171;-81
2022/03/06 01:16:46;;;;;;;10.03;5.30;;;-1.00;97.30;;;;;;5046688;28;20438;-82
2022/03/06 01:19:11;;;;;;;9.07;4.67;;;-1.00;97.30;;;;;;5046103;28;20182;-81
2022/03/06 01:21:37;;;;;;;10.47;5.00;;;-1.00;97.30;;;;;;5046679;28;20243;-81
2022/03/06 01:24:03;;;;;;;10.50;6.10;;;-0.90;97.30;;;;;;5046426;28;20701;-81
2022/03/06 01:26:28;;;;;;;8.33;5.60;;;-0.90;97.30;;;;;;5046141;28;20231;-82
2022/03/06 01:28:54;;;;;;;12.40;5.93;;;-0.90;97.30;;;;;;5044805;28;20309;-81
2022/03/06 01:31:19;;;;;;;8.60;5.43;;;-0.90;97.30;;;;;;5046269;28;20222;-82
2022/03/06 01:33:45;;;;;;;11.27;5.83;;;-0.90;97.30;;;;;;5056746;28;20197;-81
2022/03/06 01:36:10;;;;;;;10.87;6.07;;;-0.80;97.30;;;;;;5082651;28;20263;-81
2022/03/06 01:38:36;;;;;;;8.60;5.50;;;-0.80;97.30;;;;;;5083924;28;20180;-81
2022/03/06 01:41:02;;;;;;;8.63;5.20;;;-0.80;97.30;;;;;;5082129;28;20246;-82
2022/03/06 01:43:27;;;;;;;13.80;6.03;;;-0.80;97.30;;;;;;5062954;28;20215;-82
2022/03/06 01:45:53;;;;;;;8.07;5.07;;;-0.80;97.30;;;;;;5082588;28;20715;-81
2022/03/06 01:48:19;;;;;;;10.10;6.20;;;-0.80;97.30;;;;;;5076328;28;20177;-81
2022/03/06 01:50:45;;;;;;;8.80;5.13;;;-0.70;97.30;;;;;;5081744;28;20206;-81
2022/03/06 01:53:12;;;;;;;8.40;5.23;;;-0.70;97.30;;;;;;5081100;28;20176;-82
2022/03/06 01:55:38;;;;;;;9.90;4.73;;;-0.70;97.30;;;;;;5059019;28;20195;-81
2022/03/06 01:58:06;;;;;;;10.70;5.10;;;-0.70;97.30;;;;;;5060309;28;20409;-81
2022/03/06 02:00:38;;;;;;;21.17;5.77;;;-0.70;97.30;;;;;;5062358;28;20425;-82
2022/03/06 02:03:05;;;;;;;9.90;5.10;;;-0.60;97.30;;;;;;5064519;28;20790;-80
2022/03/06 02:05:30;;;;;;;7.93;5.40;;;-0.60;97.30;;;;;;5064293;28;20485;-81
2022/03/06 02:07:56;;;;;;;7.97;4.83;;;-0.60;97.30;;;;;;5077749;28;20417;-81
2022/03/06 02:10:22;;;;;;;7.33;4.50;;;-0.60;97.30;;;;;;5081958;28;20217;-80
2022/03/06 02:12:48;;;;;;;5.27;4.43;;;-0.60;97.30;;;;;;5065243;28;20171;-80
2022/03/06 02:15:15;;;;;;;7.10;4.70;;;-0.50;97.30;;;;;;5081279;28;20448;-81
2022/03/06 02:17:41;;;;;;;6.77;4.60;;;-0.50;97.30;;;;;;5062470;28;20187;-81
2022/03/06 02:20:19;;;;;;;9.43;5.70;;;-0.50;97.30;;;;;;5080586;28;20414;-81
2022/03/06 02:22:47;;;;;;;8.13;5.13;;;-0.50;97.30;;;;;;5065380;28;20201;-81
2022/03/06 02:25:27;;;;;;;9.87;4.40;;;-0.50;97.30;;;;;;5061423;28;20438;-81
2022/03/06 02:27:54;;;;;;;12.03;6.07;;;-0.50;97.30;;;;;;5082383;28;20460;-81
2022/03/06 02:30:23;;;;;;;9.10;4.00;;;-0.50;97.30;;;;;;5063733;28;20467;-81
2022/03/06 02:32:50;;;;;;;8.07;5.37;;;-0.40;97.30;;;;;;5062346;28;20415;-81
2022/03/06 02:35:16;;;;;;;8.97;5.27;;;-0.40;97.30;;;;;;5060790;28;20477;-81
2022/03/06 02:37:42;;;;;;;8.07;4.83;;;-0.40;97.30;;;;;;5061547;28;20452;-81
2022/03/06 02:40:11;;;;;;;7.73;4.33;;;-0.40;97.30;;;;;;5061940;28;20928;-82
2022/03/06 02:42:38;;;;;;;7.93;4.50;;;-0.40;97.30;;;;;;5061654;28;20417;-81
2022/03/06 02:45:14;;;;;;;6.40;4.10;;;-0.40;97.30;;;;;;5061793;28;20465;-81
2022/03/06 02:47:41;;;;;;;10.00;4.67;;;-0.40;97.30;;;;;;5044126;28;20425;-80
2022/03/06 02:50:11;;;;;;;18.20;5.80;;;-0.30;97.30;;;;;;5044531;28;21042;-81
2022/03/06 02:52:37;;;;;;;8.03;5.40;;;-0.30;97.30;;;;;;5045131;28;20450;-81
2022/03/06 02:55:04;;;;;;;8.23;4.97;;;-0.30;97.30;;;;;;5044522;28;20438;-82
2022/03/06 02:57:29;;;;;;;10.73;5.23;;;-0.30;97.30;;;;;;5044092;28;20184;-81
2022/03/06 02:59:55;;;;;;;7.90;5.20;;;-0.30;97.30;;;;;;5044721;28;20481;-80
2022/03/06 03:02:20;;;;;;;9.90;5.30;;;-0.30;97.30;;;;;;5044479;28;20172;-81
2022/03/06 03:04:47;;;;;;;10.43;4.53;;;-0.30;97.30;;;;;;5056333;28;20232;-81
2022/03/06 03:07:12;;;;;;;6.57;3.97;;;-0.30;97.30;;;;;;5043958;28;20178;-80
2022/03/06 03:09:38;;;;;;;8.23;4.20;;;-0.30;97.30;;;;;;5044459;28;20464;-81
2022/03/06 03:12:04;;;;;;;6.63;4.43;;;-0.30;97.30;;;;;;5044360;28;20203;-80
2022/03/06 03:14:33;;;;;;;8.80;4.70;;;-0.30;97.30;;;;;;5043746;28;20188;-81
2022/03/06 03:17:00;;;;;;;9.73;4.30;;;-0.20;97.30;;;;;;5044827;28;20423;-81
2022/03/06 03:19:26;;;;;;;7.63;3.87;;;-0.30;97.30;;;;;;5045022;28;20446;-81
2022/03/06 03:21:52;;;;;;;13.00;4.90;;;-0.30;97.30;;;;;;5040806;28;20953;-81
2022/03/06 03:24:18;;;;;;;6.37;4.20;;;-0.30;97.30;;;;;;5025626;28;20428;-81
2022/03/06 03:26:43;;;;;;;7.33;4.27;;;-0.20;97.30;;;;;;5024807;28;20470;-81
2022/03/06 03:29:09;;;;;;;6.77;4.03;;;-0.20;97.30;;;;;;5024835;28;20186;-81
2022/03/06 03:31:35;;;;;;;8.00;4.23;;;-0.20;97.30;;;;;;5024445;28;20302;-81
2022/03/06 03:34:00;;;;;;;8.60;5.10;;;-0.20;97.30;;;;;;5024849;28;20196;-81
2022/03/06 03:36:26;;;;;;;8.83;4.87;;;-0.20;97.30;;;;;;5043785;28;20196;-81
2022/03/06 03:38:51;;;;;;;6.57;4.93;;;-0.20;97.30;;;;;;5043853;28;20181;-79
2022/03/06 03:41:17;;;;;;;10.43;4.70;;;-0.20;97.30;;;;;;5043541;28;20180;-81
2022/03/06 03:43:43;;;;;;;11.63;4.77;;;-0.20;97.30;;;;;;5043270;28;20179;-81
2022/03/06 03:46:09;;;;;;;7.53;4.10;;;-0.20;97.30;;;;;;5043521;28;20441;-80
2022/03/06 03:48:34;;;;;;;6.33;4.67;;;-0.10;97.30;;;;;;5044305;28;20603;-80
2022/03/06 03:51:00;;;;;;;14.90;6.00;;;-0.20;97.30;;;;;;5042871;28;20228;-80
2022/03/06 03:53:26;;;;;;;7.37;5.13;;;-0.20;97.30;;;;;;5044454;28;20414;-81
2022/03/06 03:55:52;;;;;;;10.97;6.27;;;-0.20;97.30;;;;;;5043688;28;20230;-81
2022/03/06 03:58:18;;;;;;;11.33;4.70;;;-0.10;97.30;;;;;;5043729;28;20195;-81
2022/03/06 04:00:44;;;;;;;8.03;4.27;;;-0.10;97.30;;;;;;5044308;28;20464;-81
2022/03/06 04:03:10;;;;;;;11.30;5.00;;;-0.10;97.30;;;;;;5042631;28;20449;-81
2022/03/06 04:05:36;;;;;;;8.90;4.53;;;-0.10;97.30;;;;;;5043024;28;20477;-80
2022/03/06 04:08:02;;;;;;;6.30;4.30;;;-0.10;97.30;;;;;;5043746;28;20175;-81
2022/03/06 04:10:28;;;;;;;6.73;4.57;;;-0.10;97.30;;;;;;5043459;28;20199;-80
2022/03/06 04:12:53;;;;;;;8.67;4.67;;;-0.10;97.30;;;;;;5043234;28;20758;-79
2022/03/06 04:15:19;;;;;;;7.17;4.60;;;-0.10;97.30;;;;;;5043408;28;20207;-81
2022/03/06 04:17:44;;;;;;;6.70;4.67;;;-0.10;97.30;;;;;;5044146;28;20188;-80
2022/03/06 04:20:10;;;;;;;8.30;4.30;;;-0.10;97.30;;;;;;5042978;28;20201;-81
2022/03/06 04:22:35;;;;;;;7.50;4.10;;;-0.10;97.30;;;;;;5044262;28;20190;-81
2022/03/06 04:25:04;;;;;;;15.87;5.30;;;-0.10;97.30;;;;;;5044268;28;20202;-80
2022/03/06 04:27:29;;;;;;;7.73;3.77;;;-0.10;97.30;;;;;;5043959;28;20186;-81
2022/03/06 04:29:55;;;;;;;6.00;4.30;;;-0.10;97.30;;;;;;5044392;28;20422;-81
2022/03/06 04:32:21;;;;;;;6.80;4.30;;;-0.10;97.30;;;;;;5044041;28;20239;-81
2022/03/06 04:34:46;;;;;;;6.10;4.57;;;-0.10;97.30;;;;;;5044339;28;20677;-80
2022/03/06 04:37:12;;;;;;;9.20;4.97;;;-0.10;97.30;;;;;;5043875;28;20233;-81
2022/03/06 04:39:37;;;;;;;15.83;4.60;;;-0.10;97.30;;;;;;5044712;28;20665;-82
2022/03/06 04:42:03;;;;;;;6.87;4.00;;;-0.10;97.30;;;;;;5043243;28;20187;-81
2022/03/06 04:44:29;;;;;;;6.13;4.07;;;-0.10;97.30;;;;;;5043465;28;20273;-81
2022/03/06 04:46:54;;;;;;;4.20;3.20;;;-0.10;97.30;;;;;;5044163;28;20429;-81
2022/03/06 04:49:20;;;;;;;8.07;4.23;;;-0.10;97.30;;;;;;5043517;28;20223;-81
2022/03/06 04:51:45;;;;;;;10.33;4.00;;;0.00;97.30;;;;;;5043999;28;20215;-81
2022/03/06 04:54:11;;;;;;;11.20;4.67;;;0.00;97.30;;;;;;5043768;28;20604;-80
2022/03/06 04:56:37;;;;;;;4.73;4.03;;;0.00;97.30;;;;;;5044017;28;20460;-81
2022/03/06 04:59:02;;;;;;;6.07;3.77;;;0.00;97.30;;;;;;5043374;28;20183;-81
2022/03/06 05:01:28;;;;;;;8.50;4.23;;;0.00;97.30;;;;;;5042671;28;20743;-81
2022/03/06 05:03:54;;;;;;;7.17;3.90;;;0.00;97.30;;;;;;5042215;28;20210;-81
2022/03/06 05:06:19;;;;;;;6.40;4.20;;;0.10;97.30;;;;;;5021438;28;20247;-81
2022/03/06 05:08:45;;;;;;;4.63;3.90;;;0.10;97.30;;;;;;5020448;28;20538;-80
2022/03/06 05:11:10;;;;;;;7.93;4.40;;;0.10;97.30;;;;;;5020009;28;20216;-80
2022/03/06 05:13:37;;;;;;;5.93;4.30;;;0.10;97.30;;;;;;5020050;28;20276;-80
2022/03/06 05:16:03;;;;;;;8.73;4.30;;;0.10;97.30;;;;;;5019842;28;20268;-80
2022/03/06 05:18:28;;;;;;;5.63;4.00;;;0.10;97.30;;;;;;5019126;28;21009;-80
2022/03/06 05:20:54;;;;;;;15.53;4.60;;;0.10;97.30;;;;;;5019575;28;20447;-81
2022/03/06 05:23:19;;;;;;;5.27;4.07;;;0.10;97.30;;;;;;5018768;28;20196;-81
2022/03/06 05:25:46;;;;;;;9.73;4.00;;;0.10;97.30;;;;;;5019654;28;20193;-81
2022/03/06 05:28:12;;;;;;;8.00;3.90;;;0.10;97.30;;;;;;5020871;28;20195;-81
2022/03/06 05:30:37;;;;;;;11.17;4.80;;;0.10;97.30;;;;;;5023142;28;20530;-81
2022/03/06 05:33:03;;;;;;;8.30;4.93;;;0.10;97.30;;;;;;5023027;28;20930;-81
2022/03/06 05:35:29;;;;;;;10.20;5.23;;;0.10;97.30;;;;;;5024876;28;20208;-81
2022/03/06 05:37:57;;;;;;;7.20;4.93;;;0.10;97.30;;;;;;5023771;28;20204;-81
2022/03/06 05:40:23;;;;;;;8.30;4.30;;;0.10;97.30;;;;;;5023574;28;20417;-81
2022/03/06 05:42:48;;;;;;;10.67;4.67;;;0.10;97.30;;;;;;5023113;28;20442;-82
2022/03/06 05:45:14;;;;;;;6.90;4.57;;;0.10;97.30;;;;;;5023469;28;20201;-81
2022/03/06 05:47:40;;;;;;;9.80;4.97;;;0.10;97.30;;;;;;5023683;28;20739;-82
2022/03/06 05:50:07;;;;;;;9.20;4.53;;;0.10;97.30;;;;;;5023371;28;20455;-82
2022/03/06 05:52:33;;;;;;;7.70;4.23;;;0.10;97.30;;;;;;5023196;28;20212;-81
2022/03/06 05:54:59;;;;;;;8.63;5.07;;;0.10;97.30;;;;;;5021714;28;20448;-80
2022/03/06 05:57:25;;;;;;;9.07;5.30;;;0.10;97.30;;;;;;5021936;28;20169;-80
2022/03/06 05:59:51;;;;;;;9.27;5.27;;;0.10;97.30;;;;;;5021584;28;20521;-81
2022/03/06 06:02:19;;;;;;;8.17;5.23;;;0.10;97.30;;;;;;5035729;28;20416;-82
2022/03/06 06:04:45;;;;;;;13.07;4.83;;;0.10;97.30;;;;;;5032486;28;20550;-81
2022/03/06 06:07:11;;;;;;;6.73;4.83;;;0.10;97.30;;;;;;5033042;28;20474;-81
2022/03/06 06:09:37;;;;;;;6.63;5.10;;;0.20;97.30;;;;;;5034521;28;20235;-81
2022/03/06 06:12:03;;;;;;;9.93;5.37;;;0.20;97.30;;;;;;5033644;28;20459;-81
2022/03/06 06:14:29;;;;;;;8.97;4.50;;;0.20;97.30;;;;;;5016031;28;20177;-82
2022/03/06 06:16:54;;;;;;;13.43;5.53;;;0.20;97.30;;;;;;5018309;28;20435;-80
2022/03/06 06:19:20;;;;;;;7.10;4.87;;;0.20;97.30;;;;;;5015838;28;20618;-81
2022/03/06 06:21:45;;;;;;;7.43;5.00;;;0.20;97.30;;;;;;5016587;28;20552;-82
2022/03/06 06:24:13;;;;;;;10.00;5.60;;;0.20;97.30;;;;;;5016604;28;20285;-81
2022/03/06 06:26:39;;;;;;;6.50;4.57;;;0.30;97.30;;;;;;5016065;28;20263;-81
2022/03/06 06:29:04;;;;;;;7.10;5.20;;;0.30;97.30;;;;;;5016388;28;21015;-82
2022/03/06 06:31:30;;;;;;;9.90;4.30;;;0.30;97.30;;;;;;5016569;28;20463;-78
2022/03/06 06:33:56;;;;;;;9.47;4.93;;;0.30;97.30;;;;;;5015735;28;20255;-81
2022/03/06 06:36:22;;;;;;;8.70;5.33;;;0.30;97.30;;;;;;5016910;28;20186;-81
2022/03/06 06:38:47;;;;;;;11.77;5.17;;;0.40;97.30;;;;;;5015117;28;20416;-81
2022/03/06 06:41:13;;;;;;;10.20;4.77;;;0.40;97.30;;;;;;5017228;28;20678;-82
2022/03/06 06:43:40;;;;;;;15.03;5.33;;;0.40;97.30;;;;;;5016841;28;20738;-81
2022/03/06 06:46:05;;;;;;;9.77;4.93;;;0.40;97.30;;;;;;5018164;28;20440;-81
2022/03/06 06:48:31;;;;;;;9.63;5.60;;;0.50;97.30;;;;;;5016357;28;20474;-82
2022/03/06 06:50:56;;;;;;;8.10;5.23;;;0.50;97.30;;;;;;5017298;28;20243;-81
2022/03/06 06:53:22;;;;;;;6.80;4.73;;;0.50;97.30;;;;;;5016761;28;20169;-81
2022/03/06 06:55:47;;;;;;;9.57;5.60;;;0.50;97.30;;;;;;5015322;28;20672;-81
2022/03/06 06:58:13;;;;;;;6.73;5.20;;;0.50;97.30;;;;;;5015130;28;20178;-81
2022/03/06 07:00:38;;;;;;;9.67;5.30;;;0.60;97.30;;;;;;5016049;28;20585;-82
2022/03/06 07:03:04;;;;;;;9.80;5.33;;;0.60;97.30;;;;;;5016160;28;20180;-82
2022/03/06 07:05:30;;;;;;;10.40;5.23;;;0.60;97.30;;;;;;5042016;28;20271;-81
2022/03/06 07:07:55;;;;;;;11.13;5.40;;;0.60;97.30;;;;;;5034782;28;20188;-82
2022/03/06 07:10:21;;;;;;;12.20;5.57;;;0.60;97.30;;;;;;5034297;28;20196;-81
2022/03/06 07:12:51;;;;;;;9.37;5.40;;;0.60;97.30;;;;;;5035585;28;20176;-82
2022/03/06 07:15:17;;;;;;;7.43;5.70;;;0.70;97.30;;;;;;5035463;28;20193;-81
2022/03/06 07:17:42;;;;;;;9.77;5.07;;;0.70;97.30;;;;;;5034841;28;20950;-80
2022/03/06 07:20:09;;;;;;;7.57;4.53;;;0.70;97.30;;;;;;5051388;28;20258;-81
2022/03/06 07:22:35;;;;;;;13.23;5.40;;;0.80;97.30;;;;;;5052235;28;20177;-81
2022/03/06 07:25:01;;;;;;;8.90;5.00;;;0.80;97.30;;;;;;5034569;28;20541;-80
2022/03/06 07:27:27;;;;;;;8.87;5.60;;;0.80;97.30;;;;;;5036558;28;20431;-81
2022/03/06 07:29:52;;;;;;;9.27;4.70;;;0.90;97.30;;;;;;5033913;28;20176;-82
2022/03/06 07:32:18;;;;;;;11.00;5.60;;;0.90;97.30;;;;;;5055864;28;20200;-81
2022/03/06 07:34:43;;;;;;;9.10;5.37;;;0.90;97.30;;;;;;5049659;28;20202;-82
2022/03/06 07:37:09;;;;;;;12.83;6.30;;;1.00;97.30;;;;;;5034709;28;20188;-82
2022/03/06 07:39:34;;;;;;;12.97;6.10;;;1.00;97.30;;;;;;5036893;28;20188;-82
2022/03/06 07:42:00;;;;;;;9.23;5.20;;;1.00;97.30;;;;;;5034931;28;20658;-82
2022/03/06 07:44:25;;;;;;;23.50;6.40;;;1.10;97.30;;;;;;5035036;28;20220;-81
2022/03/06 07:46:51;;;;;;;5.53;4.73;;;1.10;97.30;;;;;;5053752;28;20198;-82
2022/03/06 07:49:17;;;;;;;13.23;5.13;;;1.10;97.30;;;;;;5052769;28;20187;-82
2022/03/06 07:51:42;;;;;;;9.30;5.33;;;1.10;97.30;;;;;;5050448;28;20204;-81
2022/03/06 07:54:14;;;;;;;5.87;4.53;;;1.10;97.30;;;;;;5054160;28;20415;-80
2022/03/06 07:56:42;;;;;;;6.47;4.30;;;1.10;97.30;;;;;;5053567;28;20224;-81
2022/03/06 07:59:08;;;;;;;6.63;4.40;;;1.20;97.30;;;;;;5052261;28;20930;-81
2022/03/06 08:01:33;;;;;;;13.63;4.90;;;1.20;97.30;;;;;;5040711;28;20441;-80
2022/03/06 08:03:59;;;;;;;8.60;5.53;;;1.20;97.30;;;;;;5035138;28;20291;-81
2022/03/06 08:06:24;;;;;;;6.43;4.90;;;1.30;97.30;;;;;;5035158;28;20837;-81
2022/03/06 08:08:50;;;;;;;6.90;4.60;;;1.30;97.00;;;;;;5037112;28;20177;-82
2022/03/06 08:11:15;;;;;;;8.00;4.47;;;1.40;96.90;;;;;;5035753;28;20232;-80
2022/03/06 08:13:41;;;;;;;6.90;5.00;;;1.40;96.90;;;;;;5034643;28;20177;-81
2022/03/06 08:16:07;;;;;;;8.53;5.23;;;1.40;96.70;;;;;;5034900;28;20204;-81
2022/03/06 08:18:32;;;;;;;7.93;4.90;;;1.50;96.70;;;;;;5040149;28;20172;-81
2022/03/06 08:20:58;;;;;;;10.07;4.60;;;1.50;96.20;;;;;;5040154;28;20181;-82
2022/03/06 08:23:24;;;;;;;6.53;4.63;;;1.50;95.90;;;;;;5040945;28;20180;-81
2022/03/06 08:25:49;;;;;;;8.90;4.90;;;1.50;95.40;;;;;;5040844;28;20671;-82
2022/03/06 08:28:15;;;;;;;6.70;4.13;;;1.50;95.40;;;;;;5040752;28;20240;-81
2022/03/06 08:30:42;;;;;;;8.40;5.03;;;1.50;95.30;;;;;;5039701;28;20586;-81
2022/03/06 08:33:08;;;;;;;9.40;4.83;;;1.50;95.50;;;;;;5041140;28;20172;-81
2022/03/06 08:35:34;;;;;;;8.10;4.97;;;1.60;95.50;;;;;;5029737;28;20827;-79
2022/03/06 08:38:00;;;;;;;8.10;5.10;;;1.60;95.30;;;;;;5031493;28;20199;-78
2022/03/06 08:40:26;;;;;;;8.17;4.87;;;1.70;95.40;;;;;;5033454;28;20451;-78
2022/03/06 08:42:52;;;;;;;10.57;5.17;;;1.70;95.40;;;;;;5032503;28;20422;-79
2022/03/06 08:45:18;;;;;;;11.63;5.30;;;1.80;95.20;;;;;;5027007;28;20204;-77
2022/03/06 08:47:44;;;;;;;7.80;5.13;;;1.80;94.50;;;;;;5032605;28;20419;-78
2022/03/06 08:50:09;;;;;;;7.93;4.60;;;1.90;94.20;;;;;;5044657;28;20184;-80
2022/03/06 08:52:35;;;;;;;8.23;4.20;;;1.90;94.70;;;;;;5033275;28;20187;-81
2022/03/06 08:55:01;;;;;;;6.73;4.70;;;2.00;94.80;;;;;;5027375;28;20882;-78
2022/03/06 08:57:27;;;;;;;11.03;5.37;;;2.00;93.90;;;;;;5037073;28;20242;-81
2022/03/06 08:59:53;;;;;;;12.93;6.93;;;2.00;93.30;;;;;;5039817;28;20180;-80
2022/03/06 09:02:19;;;;;;;9.37;5.80;;;2.00;93.40;;;;;;5039628;28;20591;-81
2022/03/06 09:04:45;;;;;;;16.70;6.80;;;2.00;93.40;;;;;;5044561;28;20528;-80
2022/03/06 09:07:11;;;;;;;9.27;5.50;;;2.10;93.70;;;;;;5036714;28;20444;-82
2022/03/06 09:09:36;;;;;;;12.70;6.37;;;2.20;93.60;;;;;;5039900;28;20196;-81
2022/03/06 09:12:02;;;;;;;11.27;6.07;;;2.20;92.90;;;;;;5039660;28;20220;-81
2022/03/06 09:14:28;;;;;;;10.97;5.47;;;2.20;92.60;;;;;;5039630;28;20280;-81
2022/03/06 09:16:55;;;;;;;11.20;5.80;;;2.20;92.50;;;;;;5040018;28;20930;-81
2022/03/06 09:19:23;;;;;;;14.33;6.87;;;2.30;92.40;;;;;;5039683;28;20204;-81
2022/03/06 09:21:49;;;;;;;10.90;6.77;;;2.30;92.90;;;;;;5039878;28;20420;-82
2022/03/06 09:24:15;;;;;;;8.60;6.07;;;2.40;93.00;;;;;;5039821;28;20423;-82
2022/03/06 09:26:42;;;;;;;10.13;6.60;;;2.40;92.70;;;;;;5039637;28;20442;-82
2022/03/06 09:29:08;;;;;;;12.53;6.03;;;2.40;92.40;;;;;;5040060;28;20284;-82
2022/03/06 09:31:34;;;;;;;10.90;6.30;;;2.50;92.50;;;;;;5039629;28;20511;-81
2022/03/06 09:33:59;;;;;;;15.93;6.47;;;2.60;92.50;;;;;;5039871;28;20189;-81
2022/03/06 09:36:25;;;;;;;15.20;6.43;;;2.60;92.10;;;;;;5042977;28;20493;-81
2022/03/06 09:38:50;;;;;;;13.27;6.30;;;2.60;92.70;;;;;;5042838;28;20177;-78
2022/03/06 09:41:20;;;;;;;12.50;6.10;;;2.60;92.30;;;;;;5035350;28;20671;-78
2022/03/06 09:43:46;;;;;;;12.57;5.80;;;2.60;92.00;;;;;;5038115;28;20185;-77
2022/03/06 09:46:18;;;;;;;10.53;6.17;;;2.70;92.00;;;;;;5042802;28;20435;-81
2022/03/06 09:48:44;;;;;;;12.00;6.23;;;2.70;92.00;;;;;;5034520;28;20428;-81
2022/03/06 09:51:13;;;;;;;7.63;5.60;;;2.70;91.60;;;;;;5038392;28;20470;-81
2022/03/06 09:53:39;;;;;;;10.97;6.70;;;2.70;91.50;;;;;;5034831;28;20416;-81
2022/03/06 09:56:05;;;;;;;9.87;6.17;;;2.70;91.70;;;;;;5050132;28;20465;-78
2022/03/06 09:58:31;;;;;;;8.67;5.77;;;2.70;91.30;;;;;;5030355;28;20182;-77
2022/03/06 10:00:57;;;;;;;13.03;6.50;;;2.70;91.10;;;;;;5024543;28;20217;-77
2022/03/06 10:03:23;;;;;;;13.20;6.03;;;2.80;90.90;;;;;;5037915;28;20181;-81
2022/03/06 10:05:50;;;;;;;13.50;6.97;;;2.80;91.40;;;;;;5023320;28;20599;-78
2022/03/06 10:08:29;;;;;;;11.00;5.73;;;2.80;91.40;;;;;;5017155;28;20947;-82
2022/03/06 10:10:58;;;;;;;13.47;6.00;;;2.90;91.20;;;;;;5023550;28;20482;-81
2022/03/06 10:13:35;;;;;;;9.70;5.93;;;3.00;90.90;;;;;;5018730;28;20503;-78
2022/03/06 10:16:03;;;;;;;8.10;5.37;;;3.00;89.90;;;;;;5030731;28;20451;-82
2022/03/06 10:18:39;;;;;;;6.73;4.60;;;3.00;89.80;;;;;;5018404;28;20411;-78
2022/03/06 10:21:08;;;;;;;9.53;4.40;;;3.00;88.30;;;;;;5020798;28;20418;-77
2022/03/06 10:23:34;;;;;;;12.50;5.67;;;3.00;87.60;;;;;;5018552;28;20415;-81
2022/03/06 10:26:11;;;;;;;7.27;4.33;;;3.00;89.00;;;;;;5036989;28;20447;-82
2022/03/06 10:28:47;;;;;;;8.33;4.40;;;3.10;88.20;;;;;;5037560;28;20423;-81
2022/03/06 10:31:13;;;;;;;7.57;4.47;;;3.00;87.60;;;;;;5036183;28;20460;-82
2022/03/06 10:33:39;;;;;;;9.17;5.10;;;3.10;88.30;;;;;;5021610;28;20413;-81
2022/03/06 10:36:08;;;;;;;8.80;5.27;;;3.10;88.80;;;;;;5024347;28;20672;-81
2022/03/06 10:38:35;;;;;;;5.77;4.53;;;3.10;88.20;;;;;;5021179;28;20170;-81
2022/03/06 10:41:10;;;;;;;9.17;4.93;;;3.10;88.20;;;;;;5021525;28;20727;-82
2022/03/06 10:43:35;;;;;;;7.07;4.50;;;3.00;88.20;;;;;;5021542;28;20411;-81
2022/03/06 10:46:10;;;;;;;7.20;4.70;;;3.00;88.20;;;;;;5020833;28;20449;-80
2022/03/06 10:48:37;;;;;;;9.80;4.90;;;3.00;88.30;;;;;;5022243;28;20287;-81
2022/03/06 10:51:09;;;;;;;8.33;4.27;;;2.90;88.60;;;;;;5021446;28;20491;-81
2022/03/06 10:53:35;;;;;;;7.37;3.87;;;2.90;88.50;;;;;;5021686;28;20401;-81
2022/03/06 10:56:08;;;;;;;8.17;4.00;;;2.90;88.00;;;;;;5021828;28;20502;-81
2022/03/06 10:58:37;;;;;;;8.07;4.50;;;2.90;87.90;;;;;;5022984;28;20230;-81
2022/03/06 11:01:03;;;;;;;7.10;4.27;;;2.90;88.20;;;;;;5021352;28;20427;-82
2022/03/06 11:03:35;;;;;;;6.73;4.53;;;2.80;87.70;;;;;;5021224;28;20539;-81
2022/03/06 11:06:04;;;;;;;8.00;4.47;;;2.80;87.80;;;;;;5035338;28;20305;-82
2022/03/06 11:08:32;;;;;;;6.63;3.90;;;2.70;87.90;;;;;;5040824;28;20431;-81
2022/03/06 11:10:59;;;;;;;14.50;5.30;;;2.70;88.40;;;;;;5040502;28;20458;-81
2022/03/06 11:13:26;;;;;;;6.73;4.60;;;2.70;88.50;;;;;;5057198;28;20403;-81
2022/03/06 11:15:52;;;;;;;6.70;4.43;;;2.70;88.90;;;;;;5056022;28;20431;-81
2022/03/06 11:18:19;;;;;;;7.60;4.93;;;2.70;88.60;;;;;;5057213;28;20438;-81
2022/03/06 11:20:46;;;;;;;13.83;4.03;;;2.70;88.90;;;;;;5056667;28;20460;-81
2022/03/06 11:23:38;;;;;;;7.07;4.50;;;2.80;89.10;;;;;;5055983;28;20411;-81
2022/03/06 11:26:09;;;;;;;9.07;3.93;;;2.90;88.60;;;;;;5055877;28;20522;-81
2022/03/06 11:28:57;;;;;;;6.27;3.90;;;3.00;89.20;;;;;;5040200;28;20446;-81
2022/03/06 11:31:22;;;;;;;10.37;3.90;;;3.10;88.80;;;;;;5056188;28;20839;-81
2022/03/06 11:33:57;;;;;;;4.90;3.67;;;3.00;86.30;;;;;;5055566;28;20415;-81
2022/03/06 11:36:27;;;;;;;6.83;4.13;;;3.00;87.30;;;;;;5055595;28;20207;-81
2022/03/06 11:38:54;;;;;;;9.83;4.20;;;3.00;87.50;;;;;;5056636;28;20407;-81
2022/03/06 11:41:20;;;;;;;8.47;4.37;;;2.90;87.70;;;;;;5055964;28;20415;-81
2022/03/06 11:43:48;;;;;;;7.40;4.10;;;2.90;88.00;;;;;;5056145;28;20419;-81
2022/03/06 11:46:19;;;;;;;5.90;3.57;;;2.90;88.00;;;;;;5056138;28;20471;-81
2022/03/06 11:48:44;;;;;;;8.87;4.53;;;2.90;88.60;;;;;;5039841;28;20419;-81
2022/03/06 11:51:22;;;;;;;8.03;3.73;;;2.90;88.70;;;;;;5040010;28;20465;-81
2022/03/06 11:53:57;;;;;;;6.87;4.00;;;3.00;88.80;;;;;;5040079;28;20176;-81
2022/03/06 11:56:34;;;;;;;8.20;4.20;;;3.00;88.50;;;;;;5040051;28;20502;-81
2022/03/06 11:59:09;;;;;;;5.87;3.80;;;2.90;88.20;;;;;;5040378;28;20414;-80
2022/03/06 12:01:41;;;;;;;11.40;4.10;;;2.90;87.80;;;;;;5056369;28;20439;-81
2022/03/06 12:04:08;;;;;;;6.00;4.37;;;2.80;87.30;;;;;;5044915;28;21033;-81
2022/03/06 12:06:45;;;;;;;6.30;4.07;;;2.80;87.90;;;;;;5037292;28;20482;-82
2022/03/06 12:09:32;;;;;;;5.90;3.50;;;2.80;88.30;;;;;;5037759;28;20427;-82
2022/03/06 12:12:04;;;;;;;5.37;3.60;;;2.80;88.80;;;;;;5038188;28;20442;-82
2022/03/06 12:14:41;;;;;;;6.90;3.67;;;2.80;87.80;;;;;;5038584;28;20476;-83
2022/03/06 12:17:07;;;;;;;10.60;3.70;;;2.80;87.70;;;;;;5039570;28;20419;-81
2022/03/06 12:19:33;;;;;;;4.87;3.23;;;2.80;88.10;;;;;;5048507;28;20795;-79
2022/03/06 12:22:21;;;;;;;6.70;4.17;;;2.80;87.50;;;;;;5048796;28;20427;-78
2022/03/06 12:24:49;;;;;;;4.17;3.03;;;2.70;87.90;;;;;;5036519;28;20343;-82
2022/03/06 12:27:17;;;;;;;6.20;3.40;;;2.70;88.00;;;;;;5043941;28;20430;-81
2022/03/06 12:29:46;;;;;;;7.63;3.60;;;2.70;87.50;;;;;;5053796;28;20411;-82
2022/03/06 12:32:27;;;;;;;15.17;5.93;;;2.60;87.30;;;;;;5055018;28;20462;-82
2022/03/06 12:35:10;;;;;;;4.93;3.80;;;2.60;87.10;;;;;;5054544;28;20499;-82
2022/03/06 12:37:54;;;;;;;8.93;3.60;;;2.60;87.50;;;;;;5039039;28;20415;-82
2022/03/06 12:40:24;;;;;;;4.80;3.40;;;2.60;87.50;;;;;;5042720;28;20514;-82
2022/03/06 12:43:02;;;;;;;5.10;3.37;;;2.60;88.50;;;;;;5045873;28;20418;-82
2022/03/06 12:45:28;;;;;;;11.30;3.27;;;2.60;88.30;;;;;;5056447;28;20443;-82
2022/03/06 12:47:54;;;;;;;6.17;3.53;;;2.60;88.40;;;;;;5045039;28;20423;-82
2022/03/06 12:50:22;;;;;;;8.20;3.83;;;2.60;88.40;;;;;;5039168;28;20419;-82